createdAt,value
2022-09-10T00:00:19.549Z,12.55
2022-09-10T00:03:11.794Z,12.50
2022-09-10T00:05:46.339Z,12.47
2022-09-10T00:08:19.394Z,12.46
2022-09-10T00:10:53.495Z,12.44
2022-09-10T00:13:25.370Z,12.41
2022-09-10T00:15:57.343Z,12.38
2022-09-10T00:18:29.793Z,12.35
2022-09-10T00:21:05.547Z,12.32
2022-09-10T00:23:37.689Z,12.28
2022-09-10T00:26:15.830Z,12.26
2022-09-10T00:28:48.499Z,12.25
2022-09-10T00:31:22.035Z,12.24
2022-09-10T00:33:54.842Z,12.23
2022-09-10T00:36:28.391Z,12.21
2022-09-10T00:39:03.635Z,12.19
2022-09-10T00:41:37.693Z,12.18
2022-09-10T00:44:25.780Z,12.18
2022-09-10T00:46:59.274Z,12.17
2022-09-10T00:49:38.414Z,12.14
2022-09-10T00:52:12.519Z,12.15
2022-09-10T00:54:46.113Z,12.15
2022-09-10T00:57:22.037Z,12.11
2022-09-10T00:59:59.870Z,12.07
2022-09-10T01:02:32.084Z,12.04
2022-09-10T01:05:05.854Z,12.04
2022-09-10T01:07:38.102Z,12.01
2022-09-10T01:10:13.110Z,12.02
2022-09-10T01:13:13.392Z,12.03
2022-09-10T01:15:53.973Z,12.05
2022-09-10T01:18:35.179Z,12.06
2022-09-10T01:21:16.572Z,12.08
2022-09-10T01:24:27.546Z,12.08
2022-09-10T01:27:30.473Z,12.11
2022-09-10T01:30:09.017Z,12.13
2022-09-10T01:33:07.482Z,12.14
2022-09-10T01:35:47.654Z,12.13
2022-09-10T01:38:23.452Z,12.13
2022-09-10T01:40:57.648Z,12.14
2022-09-10T01:43:31.324Z,12.15
2022-09-10T01:46:19.790Z,12.17
2022-09-10T01:49:09.196Z,12.19
2022-09-10T01:52:03.210Z,12.22
2022-09-10T01:54:48.224Z,12.24
2022-09-10T01:57:33.472Z,12.27
2022-09-10T02:00:10.514Z,12.31
2022-09-10T02:02:49.531Z,12.35
2022-09-10T02:05:24.374Z,12.39
2022-09-10T02:08:03.653Z,12.42
2022-09-10T02:10:36.263Z,12.44
2022-09-10T02:13:12.384Z,12.46
2022-09-10T02:15:57.805Z,12.46
2022-09-10T02:18:32.780Z,12.45
2022-09-10T02:21:06.378Z,12.43
2022-09-10T02:23:45.403Z,12.38
2022-09-10T02:26:19.926Z,12.34
2022-09-10T02:28:52.084Z,12.33
2022-09-10T02:31:24.183Z,12.30
2022-09-10T02:33:56.640Z,12.28
2022-09-10T02:36:29.572Z,12.29
2022-09-10T02:39:03.636Z,12.29
2022-09-10T02:41:36.767Z,12.28
2022-09-10T02:44:09.117Z,12.27
2022-09-10T02:46:42.281Z,12.28
2022-09-10T02:49:14.230Z,12.27
2022-09-10T02:51:46.305Z,12.28
2022-09-10T02:54:19.901Z,12.27
2022-09-10T02:56:51.893Z,12.26
2022-09-10T02:59:24.072Z,12.25
2022-09-10T03:01:56.543Z,12.24
2022-09-10T03:04:28.499Z,12.21
2022-09-10T03:07:00.329Z,12.20
2022-09-10T03:09:32.156Z,12.20
2022-09-10T03:12:05.319Z,12.20
2022-09-10T03:14:37.335Z,12.18
2022-09-10T03:17:09.790Z,12.16
2022-09-10T03:19:41.700Z,12.13
2022-09-10T03:22:13.686Z,12.12
2022-09-10T03:24:47.368Z,12.10
2022-09-10T03:27:20.673Z,12.10
2022-09-10T03:29:52.829Z,12.05
2022-09-10T03:32:24.792Z,12.00
2022-09-10T03:34:56.761Z,11.96
2022-09-10T03:37:28.590Z,11.95
2022-09-10T03:40:00.738Z,11.94
2022-09-10T03:42:32.625Z,11.95
2022-09-10T03:45:05.040Z,11.96
2022-09-10T03:47:38.614Z,11.95
2022-09-10T03:50:11.588Z,11.94
2022-09-10T03:52:43.591Z,11.92
2022-09-10T03:55:15.508Z,11.89
2022-09-10T03:57:49.401Z,11.88
2022-09-10T04:00:21.570Z,11.86
2022-09-10T04:02:54.080Z,11.83
2022-09-10T04:05:27.703Z,11.82
2022-09-10T04:08:00.128Z,11.83
2022-09-10T04:10:32.239Z,11.83
2022-09-10T04:13:04.247Z,11.83
2022-09-10T04:15:38.253Z,11.84
2022-09-10T04:18:11.744Z,11.84
2022-09-10T04:20:46.637Z,11.83
2022-09-10T04:23:19.380Z,11.83
2022-09-10T04:25:52.414Z,11.78
2022-09-10T04:28:24.840Z,11.73
2022-09-10T04:30:57.112Z,11.70
2022-09-10T04:33:30.172Z,11.66
2022-09-10T04:36:02.168Z,11.64
2022-09-10T04:38:40.149Z,11.62
2022-09-10T04:41:15.469Z,11.60
2022-09-10T04:43:48.383Z,11.58
2022-09-10T04:46:20.687Z,11.57
2022-09-10T04:48:55.388Z,11.58
2022-09-10T04:51:28.947Z,11.62
2022-09-10T04:54:01.826Z,11.64
2022-09-10T04:56:40.144Z,11.64
2022-09-10T04:59:12.072Z,11.63
2022-09-10T05:01:44.274Z,11.61
2022-09-10T05:04:16.263Z,11.61
2022-09-10T05:06:50.546Z,11.61
2022-09-10T05:09:22.806Z,11.63
2022-09-10T05:11:54.646Z,11.65
2022-09-10T05:14:26.647Z,11.67
2022-09-10T05:16:59.997Z,11.71
2022-09-10T05:19:34.575Z,11.75
2022-09-10T05:22:10.971Z,11.78
2022-09-10T05:24:44.179Z,11.80
2022-09-10T05:27:16.205Z,11.82
2022-09-10T05:29:49.308Z,11.84
2022-09-10T05:32:21.981Z,11.87
2022-09-10T05:34:53.950Z,11.88
2022-09-10T05:37:26.956Z,11.87
2022-09-10T05:39:59.987Z,11.87
2022-09-10T05:42:32.202Z,11.87
2022-09-10T05:45:04.589Z,11.88
2022-09-10T05:47:39.259Z,11.89
2022-09-10T05:50:12.551Z,11.90
2022-09-10T05:52:44.558Z,11.88
2022-09-10T05:55:16.718Z,11.85
2022-09-10T05:57:48.581Z,11.82
2022-09-10T06:00:25.013Z,11.81
2022-09-10T06:03:02.197Z,11.83
2022-09-10T06:05:44.492Z,11.85
2022-09-10T06:08:16.601Z,11.89
2022-09-10T06:11:00.373Z,11.91
2022-09-10T06:13:36.122Z,11.93
2022-09-10T06:16:08.747Z,11.94
2022-09-10T06:18:41.173Z,11.92
2022-09-10T06:21:17.464Z,11.95
2022-09-10T06:23:55.417Z,11.96
2022-09-10T06:26:29.193Z,11.96
2022-09-10T06:29:05.211Z,11.98
2022-09-10T06:31:38.798Z,12.02
2022-09-10T06:34:11.579Z,12.07
2022-09-10T06:36:43.743Z,12.11
2022-09-10T06:39:16.881Z,12.17
2022-09-10T06:41:54.983Z,12.20
2022-09-10T06:44:48.499Z,12.20
2022-09-10T06:48:37.239Z,12.22
2022-09-10T06:50:55.151Z,12.24
2022-09-10T06:53:33.409Z,12.27
2022-09-10T06:56:08.345Z,12.29
2022-09-10T06:58:41.443Z,12.31
2022-09-10T07:01:17.536Z,12.31
2022-09-10T07:03:57.868Z,12.31
2022-09-10T07:06:33.815Z,12.33
2022-09-10T07:49:47.390Z,12.19
2022-09-10T07:52:20.129Z,12.19
2022-09-10T07:54:56.288Z,12.22
2022-09-10T07:57:28.718Z,12.25
2022-09-10T08:00:01.767Z,12.28
2022-09-10T08:02:47.513Z,12.31
2022-09-10T08:05:23.500Z,12.32
2022-09-10T08:07:57.272Z,12.32
2022-09-10T08:10:31.729Z,12.33
2022-09-10T08:13:04.054Z,12.33
2022-09-10T08:15:36.248Z,12.36
2022-09-10T08:18:08.596Z,12.37
2022-09-10T08:20:41.919Z,12.40
2022-09-10T08:23:14.240Z,12.42
2022-09-10T08:25:53.259Z,12.46
2022-09-10T08:28:25.783Z,12.49
2022-09-10T08:31:04.258Z,12.50
2022-09-10T08:33:38.289Z,12.53
2022-09-10T08:36:13.924Z,12.55
2022-09-10T08:38:46.985Z,12.58
2022-09-10T08:41:32.466Z,12.61
2022-09-10T08:44:08.576Z,12.64
2022-09-10T08:46:48.445Z,12.65
2022-09-10T08:49:26.170Z,12.66
2022-09-10T08:52:02.557Z,12.68
2022-09-10T08:54:39.237Z,12.69
2022-09-10T08:57:28.188Z,12.71
2022-09-10T09:00:02.975Z,12.73
2022-09-10T09:02:49.521Z,12.77
2022-09-10T09:05:25.809Z,12.78
2022-09-10T09:07:59.740Z,12.79
2022-09-10T09:10:43.134Z,12.83
2022-09-10T09:13:33.682Z,12.86
2022-09-10T09:16:19.176Z,12.89
2022-09-10T09:19:06.698Z,12.91
2022-09-10T09:21:49.216Z,12.94
2022-09-10T09:24:25.525Z,12.96
2022-09-10T09:27:09.829Z,12.99
2022-09-10T09:29:49.229Z,13.01
2022-09-10T09:32:23.490Z,13.04
2022-09-10T09:34:58.416Z,13.05
2022-09-10T09:37:34.615Z,13.05
2022-09-10T09:40:15.536Z,13.02
2022-09-10T09:42:54.172Z,12.99
2022-09-10T09:45:36.460Z,13.02
2022-09-10T09:48:12.747Z,13.04
2022-09-10T09:50:48.657Z,13.06
2022-09-10T09:53:25.216Z,13.13
2022-09-10T09:55:59.031Z,13.19
2022-09-10T09:58:34.705Z,13.22
2022-09-10T10:01:15.080Z,13.25
2022-09-10T10:03:58.747Z,13.32
2022-09-10T10:06:32.703Z,13.38
2022-09-10T10:09:08.047Z,13.45
2022-09-10T10:11:47.211Z,13.51
2022-09-10T10:14:35.292Z,13.58
2022-09-10T10:17:29.718Z,13.65
2022-09-10T10:20:06.056Z,13.69
2022-09-10T10:22:39.382Z,13.74
2022-09-10T10:25:36.605Z,13.79
2022-09-10T10:28:17.759Z,13.82
2022-09-10T10:30:54.881Z,13.85
2022-09-10T10:33:33.520Z,13.91
2022-09-10T10:36:13.614Z,13.97
2022-09-10T10:38:52.233Z,14.04
2022-09-10T10:41:54.156Z,14.13
2022-09-10T10:44:40.668Z,14.23
2022-09-10T10:47:29.053Z,14.32
2022-09-10T10:50:10.210Z,14.37
2022-09-10T10:52:55.332Z,14.41
2022-09-10T10:55:32.765Z,14.45
2022-09-10T10:58:33.154Z,14.49
2022-09-10T11:01:15.109Z,14.53
2022-09-10T11:03:54.881Z,14.54
2022-09-10T11:06:32.052Z,14.56
2022-09-10T11:09:09.536Z,14.56
2022-09-10T11:11:49.378Z,14.58
2022-09-10T11:14:28.277Z,14.60
2022-09-10T11:17:05.892Z,14.63
2022-09-10T11:19:44.395Z,14.65
2022-09-10T11:22:21.099Z,14.67
2022-09-10T11:24:58.922Z,14.67
2022-09-10T11:27:35.787Z,14.68
2022-09-10T11:30:11.659Z,14.70
2022-09-10T11:32:48.053Z,14.72
2022-09-10T11:35:27.672Z,14.74
2022-09-10T11:38:07.981Z,14.74
2022-09-10T11:40:44.822Z,14.74
2022-09-10T11:43:35.012Z,14.77
2022-09-10T11:46:12.948Z,14.78
2022-09-10T11:48:50.853Z,14.78
2022-09-10T11:51:30.649Z,14.78
2022-09-10T11:54:05.073Z,14.78
2022-09-10T11:57:00.214Z,14.77
2022-09-10T12:00:02.350Z,14.76
2022-09-10T12:03:04.723Z,14.79
2022-09-10T12:05:47.035Z,14.81
2022-09-10T12:08:32.723Z,14.84
2022-09-10T12:11:15.227Z,14.87
2022-09-10T12:13:50.174Z,14.90
2022-09-10T12:16:32.411Z,14.94
2022-09-10T12:19:10.298Z,15.00
2022-09-10T12:21:48.692Z,15.04
2022-09-10T12:24:32.570Z,15.07
2022-09-10T12:27:06.080Z,15.09
2022-09-10T12:29:40.898Z,15.10
2022-09-10T12:32:38.500Z,15.13
2022-09-10T12:35:47.524Z,15.13
2022-09-10T12:38:55.973Z,15.13
2022-09-10T12:41:59.170Z,15.11
2022-09-10T12:44:46.670Z,15.10
2022-09-10T12:47:50.472Z,15.10
2022-09-10T12:50:46.556Z,15.09
2022-09-10T12:53:58.749Z,15.09
2022-09-10T12:57:09.192Z,15.09
2022-09-10T13:00:12.608Z,15.08
2022-09-10T13:02:51.401Z,15.04
2022-09-10T13:05:29.720Z,15.02
2022-09-10T13:08:12.262Z,15.00
2022-09-10T13:10:47.291Z,14.97
2022-09-10T13:13:45.103Z,14.94
2022-09-10T13:16:21.220Z,14.92
2022-09-10T13:18:57.023Z,14.89
2022-09-10T13:21:54.964Z,14.86
2022-09-10T13:25:00.277Z,14.82
2022-09-10T13:27:42.969Z,14.76
2022-09-10T13:30:20.146Z,14.70
2022-09-10T13:32:55.514Z,14.64
2022-09-10T13:35:53.817Z,14.58
2022-09-10T13:38:52.113Z,14.55
2022-09-10T13:41:53.576Z,14.52
2022-09-10T13:44:41.210Z,14.49
2022-09-10T13:47:17.951Z,14.47
2022-09-10T13:49:57.494Z,14.44
2022-09-10T13:52:35.109Z,14.42
2022-09-10T13:55:09.157Z,14.41
2022-09-10T13:57:45.228Z,14.38
2022-09-10T14:00:24.643Z,14.35
2022-09-10T14:02:58.683Z,14.34
2022-09-10T14:05:44.324Z,14.30
2022-09-10T14:08:21.592Z,14.27
2022-09-10T14:11:00.709Z,14.26
2022-09-10T14:13:37.442Z,14.25
2022-09-10T14:16:20.231Z,14.24
2022-09-10T14:18:55.511Z,14.25
2022-09-10T14:21:29.421Z,14.28
2022-09-10T14:24:04.280Z,14.30
2022-09-10T14:26:37.133Z,14.32
2022-09-10T14:29:27.107Z,14.33
2022-09-10T14:31:59.128Z,14.34
2022-09-10T14:34:41.460Z,14.37
2022-09-10T14:40:20.968Z,14.44
2022-09-10T14:42:53.054Z,14.44
2022-09-10T14:45:47.882Z,14.46
2022-09-10T14:48:35.657Z,14.49
2022-09-10T14:51:17.698Z,14.50
2022-09-10T14:53:54.016Z,14.49
2022-09-10T14:56:30.406Z,14.50
2022-09-10T14:59:12.869Z,14.50
2022-09-10T15:01:48.182Z,14.51
2022-09-10T15:04:24.133Z,14.51
2022-09-10T15:06:57.233Z,14.50
2022-09-10T15:09:31.304Z,14.49
2022-09-10T15:12:08.860Z,14.46
2022-09-10T15:14:40.679Z,14.42
2022-09-10T15:17:17.598Z,14.39
2022-09-10T15:19:48.519Z,14.36
2022-09-10T15:22:24.830Z,14.34
2022-09-10T15:25:12.545Z,14.32
2022-09-10T15:27:44.824Z,14.30
2022-09-10T15:30:17.090Z,14.31
2022-09-10T15:32:49.147Z,14.30
2022-09-10T15:35:21.164Z,14.29
2022-09-10T15:37:53.184Z,14.26
2022-09-10T15:40:25.225Z,14.22
2022-09-10T15:42:57.856Z,14.19
2022-09-10T15:45:29.685Z,14.15
2022-09-10T15:48:02.089Z,14.11
2022-09-10T15:50:34.728Z,14.10
2022-09-10T15:53:11.734Z,14.10
2022-09-10T15:55:44.214Z,14.09
2022-09-10T15:58:16.016Z,14.07
2022-09-10T16:00:48.285Z,14.05
2022-09-10T16:03:21.553Z,14.04
2022-09-10T16:05:53.500Z,14.02
2022-09-10T16:08:25.260Z,14.02
2022-09-10T16:10:57.154Z,14.02
2022-09-10T16:13:29.313Z,14.01
2022-09-10T16:16:03.903Z,14.01
2022-09-10T16:18:36.202Z,14.01
2022-09-10T16:21:13.555Z,14.02
2022-09-10T16:23:46.819Z,14.02
2022-09-10T16:26:20.723Z,14.03
2022-09-10T16:28:53.487Z,14.03
2022-09-10T16:31:27.382Z,14.03
2022-09-10T16:34:02.611Z,14.02
2022-09-10T16:36:37.032Z,13.99
2022-09-10T16:39:12.532Z,13.96
2022-09-10T16:41:46.392Z,13.96
2022-09-10T16:44:19.837Z,13.95
2022-09-10T16:46:52.553Z,13.94
2022-09-10T16:49:24.421Z,13.93
2022-09-10T16:51:56.228Z,13.93
2022-09-10T16:54:30.271Z,13.91
2022-09-10T16:57:02.226Z,13.91
2022-09-10T16:59:35.244Z,13.90
2022-09-10T17:02:07.657Z,13.90
2022-09-10T17:04:39.525Z,13.89
2022-09-10T17:07:11.413Z,13.88
2022-09-10T17:09:51.232Z,13.87
2022-09-10T17:12:23.211Z,13.86
2022-09-10T17:14:56.228Z,13.87
2022-09-10T17:17:28.427Z,13.86
2022-09-10T17:20:01.286Z,13.86
2022-09-10T17:22:33.110Z,13.85
2022-09-10T17:25:06.939Z,13.85
2022-09-10T17:27:38.805Z,13.84
2022-09-10T17:30:12.734Z,13.83
2022-09-10T17:32:44.624Z,13.83
2022-09-10T17:35:16.615Z,13.82
2022-09-10T17:37:48.709Z,13.82
2022-09-10T17:40:21.474Z,13.82
2022-09-10T17:42:53.716Z,13.81
2022-09-10T17:45:25.480Z,13.81
2022-09-10T17:47:57.423Z,13.80
2022-09-10T17:50:29.396Z,13.79
2022-09-10T17:53:02.182Z,13.77
2022-09-10T17:55:36.283Z,13.75
2022-09-10T17:58:08.105Z,13.72
2022-09-10T18:00:42.795Z,13.70
2022-09-10T18:03:15.677Z,13.67
2022-09-10T18:05:48.153Z,13.63
2022-09-10T18:08:20.390Z,13.61
2022-09-10T18:11:01.027Z,13.59
2022-09-10T18:13:33.309Z,13.58
2022-09-10T18:16:10.186Z,13.57
2022-09-10T18:18:40.536Z,13.55
2022-09-10T18:21:19.442Z,13.54
2022-09-10T18:23:55.260Z,13.54
2022-09-10T18:26:29.791Z,13.53
2022-09-10T18:29:03.404Z,13.54
2022-09-10T18:31:38.717Z,13.55
2022-09-10T18:34:12.666Z,13.55
2022-09-10T18:36:45.123Z,13.56
2022-09-10T18:39:17.430Z,13.57
2022-09-10T18:41:49.492Z,13.56
2022-09-10T18:44:24.238Z,13.57
2022-09-10T18:46:57.488Z,13.57
2022-09-10T18:49:29.663Z,13.58
2022-09-10T18:52:02.077Z,13.59
2022-09-10T18:54:36.890Z,13.56
2022-09-10T18:57:08.989Z,13.56
2022-09-10T18:59:40.806Z,13.56
2022-09-10T19:02:15.293Z,13.54
2022-09-10T19:05:09.641Z,13.54
2022-09-10T19:07:39.334Z,13.55
2022-09-10T19:10:11.377Z,13.54
2022-09-10T19:12:43.835Z,13.53
2022-09-10T19:15:15.753Z,13.53
2022-09-10T19:17:47.812Z,13.53
2022-09-10T19:20:20.463Z,13.54
2022-09-10T19:22:53.562Z,13.53
2022-09-10T19:25:25.383Z,13.53
2022-09-10T19:27:58.425Z,13.52
2022-09-10T19:30:35.152Z,13.52
2022-09-10T19:33:07.587Z,13.50
2022-09-10T19:35:39.835Z,13.48
2022-09-10T19:38:33.977Z,13.46
2022-09-10T19:41:09.534Z,13.44
2022-09-10T19:43:42.586Z,13.42
2022-09-10T19:46:15.340Z,13.43
2022-09-10T19:48:47.768Z,13.43
2022-09-10T19:51:21.599Z,13.44
2022-09-10T19:53:53.458Z,13.44
2022-09-10T19:56:27.357Z,13.43
2022-09-10T19:59:00.059Z,13.44
2022-09-10T20:01:35.578Z,13.45
2022-09-10T20:04:09.283Z,13.45
2022-09-10T20:06:42.574Z,13.44
2022-09-10T20:09:14.551Z,13.43
2022-09-10T20:11:46.331Z,13.44
2022-09-10T20:14:19.725Z,13.46
2022-09-10T20:16:51.597Z,13.47
2022-09-10T20:19:23.897Z,13.48
2022-09-10T20:21:56.038Z,13.49
2022-09-10T20:24:28.608Z,13.51
2022-09-10T20:27:00.547Z,13.50
2022-09-10T20:29:32.961Z,13.52
2022-09-10T20:32:05.457Z,13.51
2022-09-10T20:34:37.443Z,13.51
2022-09-10T20:37:09.296Z,13.50
2022-09-10T20:39:42.791Z,13.49
2022-09-10T20:42:15.101Z,13.49
2022-09-10T20:44:46.973Z,13.45
2022-09-10T20:47:18.874Z,13.41
2022-09-10T20:49:50.815Z,13.36
2022-09-10T20:52:23.432Z,13.33
2022-09-10T20:54:55.595Z,13.32
2022-09-10T20:57:30.280Z,13.28
2022-09-10T21:00:02.390Z,13.27
2022-09-10T21:02:34.513Z,13.27
2022-09-10T21:05:07.447Z,13.26
2022-09-10T21:07:39.273Z,13.24
2022-09-10T21:10:12.273Z,13.22
2022-09-10T21:12:44.150Z,13.21
2022-09-10T21:15:16.347Z,13.20
2022-09-10T21:17:49.472Z,13.20
2022-09-10T21:20:22.448Z,13.18
2022-09-10T21:22:56.094Z,13.17
2022-09-10T21:25:28.137Z,13.17
2022-09-10T21:28:00.075Z,13.17
2022-09-10T21:30:32.065Z,13.17
2022-09-10T21:33:03.978Z,13.18
2022-09-10T21:35:35.914Z,13.17
2022-09-10T21:38:07.687Z,13.16
2022-09-10T21:40:39.488Z,13.14
2022-09-10T21:43:11.307Z,13.14
2022-09-10T21:45:43.172Z,13.13
2022-09-10T21:48:14.981Z,13.13
2022-09-10T21:50:46.940Z,13.11
2022-09-10T21:53:19.200Z,13.10
2022-09-10T21:55:54.051Z,13.09
2022-09-10T21:58:27.984Z,13.10
2022-09-10T22:01:00.090Z,13.09
2022-09-10T22:03:33.666Z,13.08
2022-09-10T22:06:14.016Z,13.07
2022-09-10T22:08:47.796Z,13.06
2022-09-10T22:11:23.993Z,13.04
2022-09-10T22:13:57.527Z,13.04
2022-09-10T22:16:31.129Z,13.01
2022-09-10T22:19:05.789Z,12.98
2022-09-10T22:21:38.233Z,12.95
2022-09-10T22:24:11.698Z,12.94
2022-09-10T22:26:44.971Z,12.94
2022-09-10T22:29:18.789Z,12.92
2022-09-10T22:31:51.300Z,12.90
2022-09-10T22:34:23.655Z,12.90
2022-09-10T22:36:55.573Z,12.89
2022-09-10T22:39:30.028Z,12.88
2022-09-10T22:42:01.843Z,12.87
2022-09-10T22:44:33.706Z,12.84
2022-09-10T22:47:05.697Z,12.83
2022-09-10T22:49:37.529Z,12.82
2022-09-10T22:52:09.389Z,12.82
2022-09-10T22:54:41.148Z,12.80
2022-09-10T22:57:13.238Z,12.81
2022-09-10T22:59:45.150Z,12.81
2022-09-10T23:02:16.942Z,12.81
2022-09-10T23:04:51.189Z,12.82
2022-09-10T23:07:23.052Z,12.81
2022-09-10T23:09:55.555Z,12.81
2022-09-10T23:12:27.466Z,12.82
2022-09-10T23:14:59.395Z,12.82
2022-09-10T23:17:31.229Z,12.81
2022-09-10T23:20:03.232Z,12.80
2022-09-10T23:22:35.095Z,12.78
2022-09-10T23:25:08.372Z,12.77
2022-09-10T23:27:40.358Z,12.75
2022-09-10T23:30:16.156Z,12.71
2022-09-10T23:32:48.929Z,12.69
2022-09-10T23:35:21.254Z,12.67
2022-09-10T23:37:53.044Z,12.66
2022-09-10T23:40:29.975Z,12.66
2022-09-10T23:43:04.172Z,12.64
2022-09-10T23:45:35.961Z,12.63
2022-09-10T23:48:08.539Z,12.63
2022-09-10T23:50:40.713Z,12.62
2022-09-10T23:53:12.576Z,12.61
2022-09-10T23:55:44.353Z,12.60
2022-09-10T23:58:19.899Z,12.59
